createdAt,value
2017-10-10T00:00:10.668Z,22.3
2017-10-10T00:01:18.764Z,22.2
2017-10-10T00:02:26.849Z,22.3
2017-10-10T00:03:34.939Z,22.3
2017-10-10T00:04:43.027Z,22.3
2017-10-10T00:05:51.109Z,22.3
2017-10-10T00:06:59.200Z,22.3
2017-10-10T00:08:07.286Z,22.4
2017-10-10T00:09:15.371Z,22.3
2017-10-10T00:10:23.477Z,22.3
2017-10-10T00:11:31.561Z,22.3
2017-10-10T00:12:39.651Z,22.4
2017-10-10T00:13:47.734Z,22.3
2017-10-10T00:14:55.832Z,22.4
2017-10-10T00:16:03.920Z,22.4
2017-10-10T00:17:12.053Z,22.4
2017-10-10T00:18:20.135Z,22.4
2017-10-10T00:19:28.228Z,22.4
2017-10-10T00:20:36.310Z,22.4
2017-10-10T00:21:44.403Z,22.4
2017-10-10T00:22:52.483Z,22.3
2017-10-10T00:24:00.573Z,22.4
2017-10-10T00:25:08.658Z,22.4
2017-10-10T00:26:16.752Z,22.3
2017-10-10T00:27:24.839Z,22.4
2017-10-10T00:28:32.928Z,22.4
2017-10-10T00:29:41.016Z,22.4
2017-10-10T00:30:52.613Z,22.4
2017-10-10T00:31:57.189Z,22.3
2017-10-10T00:33:05.277Z,22.4
2017-10-10T00:34:13.364Z,22.4
2017-10-10T00:35:21.451Z,22.4
2017-10-10T00:36:29.538Z,22.4
2017-10-10T00:37:37.632Z,22.4
2017-10-10T00:38:45.712Z,22.4
2017-10-10T00:39:53.813Z,22.4
2017-10-10T00:41:01.901Z,22.4
2017-10-10T00:42:09.980Z,22.5
2017-10-10T00:43:18.065Z,22.3
2017-10-10T00:44:26.151Z,22.4
2017-10-10T00:45:34.237Z,22.5
2017-10-10T00:46:42.326Z,22.4
2017-10-10T00:47:50.416Z,22.4
2017-10-10T00:48:58.500Z,22.3
2017-10-10T00:50:06.588Z,22.4
2017-10-10T00:51:14.677Z,22.4
2017-10-10T00:52:22.762Z,22.3
2017-10-10T00:53:30.851Z,22.5
2017-10-10T00:54:38.942Z,22.4
2017-10-10T00:55:47.035Z,22.4
2017-10-10T00:56:55.122Z,22.4
2017-10-10T00:58:03.209Z,22.4
2017-10-10T00:59:11.305Z,22.4
2017-10-10T01:00:19.395Z,22.4
2017-10-10T01:01:27.482Z,22.4
2017-10-10T01:02:35.569Z,22.4
2017-10-10T01:03:43.657Z,22.4
2017-10-10T01:04:51.759Z,22.4
2017-10-10T01:05:59.846Z,22.4
2017-10-10T01:07:07.933Z,22.4
2017-10-10T01:08:16.020Z,22.4
2017-10-10T01:09:24.106Z,22.4
2017-10-10T01:10:32.200Z,22.4
2017-10-10T01:11:40.284Z,22.3
2017-10-10T01:12:48.368Z,22.4
2017-10-10T01:13:56.480Z,22.4
2017-10-10T01:15:04.568Z,22.3
2017-10-10T01:16:12.657Z,22.5
2017-10-10T01:17:20.742Z,22.4
2017-10-10T01:18:28.829Z,22.3
2017-10-10T01:19:36.917Z,22.3
2017-10-10T01:20:45.004Z,22.3
2017-10-10T01:21:53.090Z,22.4
2017-10-10T01:23:01.179Z,22.4
2017-10-10T01:24:09.265Z,22.3
2017-10-10T01:25:17.358Z,22.4
2017-10-10T01:26:25.439Z,22.4
2017-10-10T01:27:33.529Z,22.3
2017-10-10T01:28:41.617Z,22.4
2017-10-10T01:29:49.702Z,22.4
2017-10-10T01:30:57.789Z,22.4
2017-10-10T01:32:05.881Z,22.4
2017-10-10T01:33:13.964Z,22.4
2017-10-10T01:34:22.052Z,22.4
2017-10-10T01:35:30.139Z,22.4
2017-10-10T01:36:38.226Z,22.4
2017-10-10T01:37:46.310Z,22.4
2017-10-10T01:38:54.403Z,22.4
2017-10-10T01:40:02.487Z,22.3
2017-10-10T01:41:10.574Z,22.3
2017-10-10T01:42:18.660Z,22.3
2017-10-10T01:43:26.747Z,22.3
2017-10-10T01:44:34.835Z,22.4
2017-10-10T01:45:42.924Z,22.3
2017-10-10T01:46:51.021Z,22.3
2017-10-10T01:47:59.106Z,22.3
2017-10-10T01:49:07.191Z,22.3
2017-10-10T01:50:15.279Z,22.3
2017-10-10T01:51:23.367Z,22.3
2017-10-10T01:52:31.453Z,22.3
2017-10-10T01:53:39.541Z,22.3
2017-10-10T01:54:47.628Z,22.3
2017-10-10T01:55:55.731Z,22.3
2017-10-10T01:57:03.819Z,22.2
2017-10-10T01:58:11.903Z,22.3
2017-10-10T01:59:20.329Z,22.2
2017-10-10T02:00:28.415Z,22.3
2017-10-10T02:01:36.497Z,22.2
2017-10-10T02:02:44.586Z,22.2
2017-10-10T02:03:52.672Z,22.2
2017-10-10T02:05:00.760Z,22.2
2017-10-10T02:06:08.847Z,22.2
2017-10-10T02:07:16.933Z,22.2
2017-10-10T02:08:25.027Z,22.3
2017-10-10T02:09:33.107Z,22.3
2017-10-10T02:10:41.195Z,22.2
2017-10-10T02:11:49.285Z,22.3
2017-10-10T02:12:57.372Z,22.1
2017-10-10T02:14:05.476Z,22.2
2017-10-10T02:15:13.544Z,22.2
2017-10-10T02:16:21.631Z,22.2
2017-10-10T02:17:29.721Z,22.2
2017-10-10T02:18:37.807Z,22.3
2017-10-10T02:19:45.895Z,22.2
2017-10-10T02:20:53.986Z,22.2
2017-10-10T02:22:02.067Z,22.2
2017-10-10T02:23:10.155Z,22.2
2017-10-10T02:24:18.250Z,22.2
2017-10-10T02:25:26.327Z,22.1
2017-10-10T02:26:34.416Z,22.1
2017-10-10T02:27:42.503Z,22.1
2017-10-10T02:28:50.596Z,22.1
2017-10-10T02:29:58.679Z,22.1
2017-10-10T02:31:06.766Z,22.1
2017-10-10T02:32:14.854Z,22.1
2017-10-10T02:33:23.004Z,22.2
2017-10-10T02:34:31.093Z,22.1
2017-10-10T02:35:39.191Z,22.1
2017-10-10T02:36:47.266Z,22.1
2017-10-10T02:37:55.355Z,22.0
2017-10-10T02:39:03.446Z,22.1
2017-10-10T02:40:11.525Z,22.1
2017-10-10T02:41:19.615Z,22.1
2017-10-10T02:42:27.705Z,22.0
2017-10-10T02:43:35.794Z,22.0
2017-10-10T02:44:43.886Z,22.0
2017-10-10T02:45:51.972Z,22.0
2017-10-10T02:47:00.071Z,22.1
2017-10-10T02:48:08.147Z,22.1
2017-10-10T02:49:16.233Z,22.0
2017-10-10T02:50:24.320Z,21.9
2017-10-10T02:51:32.411Z,22.1
2017-10-10T02:52:40.502Z,22.0
2017-10-10T02:53:48.590Z,21.9
2017-10-10T02:54:56.673Z,21.9
2017-10-10T02:56:04.757Z,21.9
2017-10-10T02:57:12.841Z,21.9
2017-10-10T02:58:20.938Z,21.9
2017-10-10T02:59:29.026Z,21.9
2017-10-10T03:00:37.113Z,21.9
2017-10-10T03:01:45.199Z,21.9
2017-10-10T03:02:53.289Z,21.9
2017-10-10T03:04:01.452Z,21.9
2017-10-10T03:05:09.457Z,21.9
2017-10-10T03:06:17.546Z,21.9
2017-10-10T03:07:25.630Z,21.9
2017-10-10T03:08:33.719Z,21.9
2017-10-10T03:09:41.807Z,21.9
2017-10-10T03:10:49.893Z,21.9
2017-10-10T03:11:57.986Z,21.9
2017-10-10T03:13:06.068Z,21.7
2017-10-10T03:14:14.154Z,21.9
2017-10-10T03:15:22.241Z,21.8
2017-10-10T03:16:30.328Z,21.8
2017-10-10T03:17:38.414Z,21.7
2017-10-10T03:18:46.509Z,21.7
2017-10-10T03:19:54.588Z,21.8
2017-10-10T03:21:02.675Z,21.8
2017-10-10T03:22:10.763Z,21.8
2017-10-10T03:23:18.850Z,21.7
2017-10-10T03:24:26.933Z,21.7
2017-10-10T03:25:35.020Z,21.8
2017-10-10T03:26:43.109Z,21.7
2017-10-10T03:27:51.197Z,21.7
2017-10-10T03:28:59.284Z,21.6
2017-10-10T03:30:07.372Z,21.7
2017-10-10T03:31:15.465Z,21.8
2017-10-10T03:32:23.560Z,21.6
2017-10-10T03:33:31.636Z,21.7
2017-10-10T03:34:39.724Z,21.6
2017-10-10T03:35:47.822Z,21.6
2017-10-10T03:36:55.896Z,21.7
2017-10-10T03:38:03.984Z,21.7
2017-10-10T03:39:12.071Z,21.6
2017-10-10T03:40:20.168Z,21.7
2017-10-10T03:41:28.260Z,21.8
2017-10-10T03:42:36.342Z,21.6
2017-10-10T03:43:44.425Z,21.7
2017-10-10T03:44:52.512Z,21.7
2017-10-10T03:46:00.598Z,21.6
2017-10-10T03:47:08.691Z,21.7
2017-10-10T03:48:16.773Z,21.7
2017-10-10T03:49:24.869Z,21.6
2017-10-10T03:50:32.946Z,21.6
2017-10-10T03:51:41.034Z,21.6
2017-10-10T03:52:49.117Z,21.6
2017-10-10T03:53:57.212Z,21.6
2017-10-10T03:55:05.299Z,21.6
2017-10-10T03:56:13.385Z,21.6
2017-10-10T03:57:21.473Z,21.6
2017-10-10T03:58:29.559Z,21.6
2017-10-10T03:59:37.646Z,21.6
2017-10-10T04:00:45.733Z,21.5
2017-10-10T04:01:53.816Z,21.6
2017-10-10T04:03:01.905Z,21.6
2017-10-10T04:04:09.993Z,21.5
2017-10-10T04:05:18.078Z,21.5
2017-10-10T04:06:26.165Z,21.5
2017-10-10T04:07:34.253Z,21.5
2017-10-10T04:08:42.336Z,21.4
2017-10-10T04:09:50.423Z,21.4
2017-10-10T04:10:58.511Z,21.4
2017-10-10T04:12:06.607Z,21.4
2017-10-10T04:13:14.699Z,21.4
2017-10-10T04:14:22.796Z,21.4
2017-10-10T04:15:30.868Z,21.4
2017-10-10T04:16:38.956Z,21.4
2017-10-10T04:17:47.038Z,21.4
2017-10-10T04:18:55.121Z,21.4
2017-10-10T04:20:03.210Z,21.3
2017-10-10T04:21:11.297Z,21.4
2017-10-10T04:22:19.471Z,21.3
2017-10-10T04:23:27.471Z,21.3
2017-10-10T04:24:35.559Z,21.3
2017-10-10T04:25:43.657Z,21.3
2017-10-10T04:26:51.825Z,21.3
2017-10-10T04:27:59.861Z,21.3
2017-10-10T04:29:07.948Z,21.3
2017-10-10T04:30:16.038Z,21.3
2017-10-10T04:31:24.127Z,21.2
2017-10-10T04:32:32.225Z,21.2
2017-10-10T04:33:41.039Z,21.1
2017-10-10T04:34:48.407Z,21.3
2017-10-10T04:35:56.490Z,21.3
2017-10-10T04:37:04.576Z,21.2
2017-10-10T04:38:12.662Z,21.2
2017-10-10T04:39:20.899Z,21.2
2017-10-10T04:40:28.837Z,21.2
2017-10-10T04:41:36.922Z,21.1
2017-10-10T04:42:45.415Z,21.2
2017-10-10T04:43:53.093Z,21.2
2017-10-10T04:45:01.338Z,21.2
2017-10-10T04:46:09.267Z,21.2
2017-10-10T04:47:17.351Z,21.1
2017-10-10T04:48:25.514Z,21.1
2017-10-10T04:49:33.612Z,21.1
2017-10-10T04:50:41.693Z,21.0
2017-10-10T04:51:49.799Z,21.1
2017-10-10T04:52:57.864Z,21.0
2017-10-10T04:54:05.951Z,21.0
2017-10-10T04:55:14.038Z,21.1
2017-10-10T04:56:22.122Z,21.1
2017-10-10T04:57:30.210Z,21.1
2017-10-10T04:58:38.300Z,21.1
2017-10-10T04:59:46.385Z,20.9
2017-10-10T05:00:54.469Z,21.1
2017-10-10T05:02:02.553Z,21.0
2017-10-10T05:03:10.643Z,21.0
2017-10-10T05:04:18.724Z,21.0
2017-10-10T05:05:26.817Z,21.0
2017-10-10T05:06:35.238Z,21.1
2017-10-10T05:07:43.513Z,20.9
2017-10-10T05:08:51.078Z,21.0
2017-10-10T05:09:59.159Z,20.9
2017-10-10T05:11:07.479Z,20.9
2017-10-10T05:12:15.510Z,20.9
2017-10-10T05:13:23.418Z,20.9
2017-10-10T05:14:31.505Z,20.9
2017-10-10T05:15:39.619Z,20.9
2017-10-10T05:16:47.847Z,20.9
2017-10-10T05:17:55.768Z,20.9
2017-10-10T05:19:03.865Z,20.9
2017-10-10T05:20:12.482Z,20.9
2017-10-10T05:21:20.032Z,20.8
2017-10-10T05:22:28.120Z,20.9
2017-10-10T05:23:36.203Z,20.9
2017-10-10T05:24:44.288Z,20.8
2017-10-10T05:25:52.393Z,20.8
2017-10-10T05:27:00.466Z,20.9
2017-10-10T05:28:08.547Z,20.8
2017-10-10T05:29:16.633Z,20.8
2017-10-10T05:30:24.716Z,20.9
2017-10-10T05:31:32.803Z,20.8
2017-10-10T05:32:40.890Z,20.9
2017-10-10T05:33:48.974Z,20.8
2017-10-10T05:34:57.059Z,20.8
2017-10-10T05:36:05.148Z,20.8
2017-10-10T05:37:13.237Z,20.7
2017-10-10T05:38:21.321Z,20.7
2017-10-10T05:39:29.404Z,20.8
2017-10-10T05:40:37.569Z,20.7
2017-10-10T05:41:45.573Z,20.7
2017-10-10T05:42:53.662Z,20.7
2017-10-10T05:44:01.748Z,20.7
2017-10-10T05:45:09.835Z,20.7
2017-10-10T05:46:18.147Z,20.7
2017-10-10T05:47:26.233Z,20.6
2017-10-10T05:48:34.320Z,20.7
2017-10-10T05:49:42.409Z,20.7
2017-10-10T05:50:50.488Z,20.6
2017-10-10T05:51:58.581Z,20.6
2017-10-10T05:53:06.663Z,20.7
2017-10-10T05:54:14.748Z,20.7
2017-10-10T05:55:22.855Z,20.7
2017-10-10T05:56:30.920Z,20.6
2017-10-10T05:57:39.006Z,20.6
2017-10-10T05:58:47.189Z,20.6
2017-10-10T05:59:55.176Z,20.6
2017-10-10T06:01:03.262Z,20.6
2017-10-10T06:02:11.359Z,20.6
2017-10-10T06:03:19.436Z,20.6
2017-10-10T06:04:27.583Z,20.5
2017-10-10T06:05:35.605Z,20.5
2017-10-10T06:06:43.691Z,20.5
2017-10-10T06:07:51.778Z,20.6
2017-10-10T06:08:59.862Z,20.6
2017-10-10T06:10:07.955Z,20.5
2017-10-10T06:11:16.040Z,20.5
2017-10-10T06:12:24.122Z,20.5
2017-10-10T06:13:32.226Z,20.5
2017-10-10T06:14:40.299Z,20.5
2017-10-10T06:15:48.381Z,20.5
2017-10-10T06:16:56.468Z,20.5
2017-10-10T06:18:04.551Z,20.5
2017-10-10T06:19:12.662Z,20.6
2017-10-10T06:20:20.723Z,20.5
2017-10-10T06:21:28.814Z,20.5
2017-10-10T06:22:36.893Z,20.5
2017-10-10T06:23:44.976Z,20.5
2017-10-10T06:24:53.064Z,20.4
2017-10-10T06:26:01.150Z,20.5
2017-10-10T06:27:09.236Z,20.4
2017-10-10T06:28:17.325Z,20.4
2017-10-10T06:29:25.411Z,20.5
2017-10-10T06:30:33.500Z,20.5
2017-10-10T06:31:41.580Z,20.5
2017-10-10T06:32:49.666Z,20.4
2017-10-10T06:33:57.757Z,20.3
2017-10-10T06:35:05.838Z,20.5
2017-10-10T06:36:14.012Z,20.4
2017-10-10T06:37:22.012Z,20.3
2017-10-10T06:38:30.104Z,20.3
2017-10-10T06:39:38.184Z,20.3
2017-10-10T06:40:46.267Z,20.4
2017-10-10T06:41:54.352Z,20.4
2017-10-10T06:43:02.439Z,20.4
2017-10-10T06:44:10.532Z,20.4
2017-10-10T06:45:18.621Z,20.4
2017-10-10T06:46:26.696Z,20.4
2017-10-10T06:47:34.954Z,20.3
2017-10-10T06:48:42.868Z,20.3
2017-10-10T06:49:50.952Z,20.3
2017-10-10T06:50:59.050Z,20.3
2017-10-10T06:52:07.134Z,20.2
2017-10-10T06:53:15.219Z,20.3
2017-10-10T06:54:23.303Z,20.2
2017-10-10T06:55:31.390Z,20.2
2017-10-10T06:56:39.476Z,20.2
2017-10-10T06:57:47.561Z,20.3
2017-10-10T06:58:55.646Z,20.2
2017-10-10T07:00:03.733Z,20.2
2017-10-10T07:01:11.815Z,20.2
2017-10-10T07:02:19.902Z,20.2
2017-10-10T07:03:28.008Z,20.2
2017-10-10T07:04:36.075Z,20.1
2017-10-10T07:05:44.164Z,20.2
2017-10-10T07:06:52.246Z,20.2
2017-10-10T07:08:00.335Z,20.2
2017-10-10T07:09:08.414Z,20.2
2017-10-10T07:10:16.499Z,20.3
2017-10-10T07:11:24.587Z,20.1
2017-10-10T07:12:32.671Z,20.1
2017-10-10T07:13:40.759Z,20.2
2017-10-10T07:14:48.852Z,20.2
2017-10-10T07:15:56.947Z,20.2
2017-10-10T07:17:05.033Z,20.1
2017-10-10T07:18:13.115Z,20.1
2017-10-10T07:19:21.202Z,20.1
2017-10-10T07:20:29.287Z,20.2
2017-10-10T07:21:37.372Z,20.1
2017-10-10T07:22:45.477Z,20.1
2017-10-10T07:23:53.545Z,20.1
2017-10-10T07:25:01.649Z,20.1
2017-10-10T07:26:09.714Z,20.1
2017-10-10T07:27:17.807Z,20.1
2017-10-10T07:28:25.891Z,20.1
2017-10-10T07:29:33.971Z,20.1
2017-10-10T07:30:42.057Z,20.1
2017-10-10T07:31:50.144Z,20.1
2017-10-10T07:32:58.227Z,20.1
2017-10-10T07:34:06.312Z,20.1
2017-10-10T07:35:14.398Z,20.1
2017-10-10T07:36:22.484Z,20.1
2017-10-10T07:37:30.569Z,20.0
2017-10-10T07:38:38.661Z,20.1
2017-10-10T07:39:46.743Z,20.0
2017-10-10T07:40:54.833Z,20.1
2017-10-10T07:42:02.913Z,20.0
2017-10-10T07:43:10.998Z,20.0
2017-10-10T07:44:19.088Z,20.1
2017-10-10T07:45:27.174Z,20.0
2017-10-10T07:46:35.411Z,20.0
2017-10-10T07:47:43.494Z,20.0
2017-10-10T07:48:51.580Z,20.0
2017-10-10T07:49:59.667Z,20.0
2017-10-10T07:51:07.751Z,20.0
2017-10-10T07:52:15.856Z,20.0
2017-10-10T07:53:23.926Z,19.9
2017-10-10T07:54:32.013Z,20.0
2017-10-10T07:55:40.101Z,20.0
2017-10-10T07:56:48.178Z,19.9
2017-10-10T07:57:56.270Z,20.0
2017-10-10T07:59:04.349Z,19.9
2017-10-10T08:00:12.437Z,19.9
2017-10-10T08:01:20.522Z,20.0
2017-10-10T08:02:28.605Z,19.9
2017-10-10T08:03:36.692Z,20.0
2017-10-10T08:04:44.780Z,19.9
2017-10-10T08:05:52.863Z,20.0
2017-10-10T08:07:00.951Z,20.0
2017-10-10T08:08:09.043Z,20.0
2017-10-10T08:09:17.126Z,19.9
2017-10-10T08:10:25.212Z,19.9
2017-10-10T08:11:33.298Z,19.9
2017-10-10T08:12:41.390Z,19.9
2017-10-10T08:13:49.468Z,19.9
2017-10-10T08:14:57.554Z,19.9
2017-10-10T08:16:05.639Z,19.9
2017-10-10T08:17:13.725Z,19.9
2017-10-10T08:18:21.813Z,19.9
2017-10-10T08:19:29.901Z,19.9
2017-10-10T08:20:37.982Z,19.9
2017-10-10T08:21:46.068Z,19.9
2017-10-10T08:22:54.153Z,19.9
2017-10-10T08:24:02.239Z,19.9
2017-10-10T08:25:10.325Z,19.8
2017-10-10T08:26:18.408Z,19.8
2017-10-10T08:27:26.494Z,19.9
2017-10-10T08:28:34.580Z,19.9
2017-10-10T08:29:42.665Z,19.9
2017-10-10T08:30:50.752Z,19.9
2017-10-10T08:31:58.838Z,19.8
2017-10-10T08:33:06.930Z,19.8
2017-10-10T08:34:15.010Z,19.7
2017-10-10T08:35:23.094Z,19.7
2017-10-10T08:36:31.180Z,19.9
2017-10-10T08:37:39.264Z,19.8
2017-10-10T08:38:47.356Z,19.7
2017-10-10T08:39:55.436Z,19.7
2017-10-10T08:41:03.523Z,19.8
2017-10-10T08:42:11.608Z,19.7
2017-10-10T08:43:19.695Z,19.7
2017-10-10T08:44:27.785Z,19.7
2017-10-10T08:45:35.864Z,19.7
2017-10-10T08:46:43.949Z,19.7
2017-10-10T08:47:52.035Z,19.6
2017-10-10T08:49:00.122Z,19.8
2017-10-10T08:50:08.207Z,19.7
2017-10-10T08:51:16.291Z,19.7
2017-10-10T08:52:24.376Z,19.8
2017-10-10T08:53:32.463Z,19.7
2017-10-10T08:54:40.553Z,19.7
2017-10-10T08:55:48.644Z,19.7
2017-10-10T08:56:56.728Z,19.7
2017-10-10T08:58:04.811Z,19.7
2017-10-10T08:59:12.898Z,19.7
2017-10-10T09:00:21.000Z,19.7
2017-10-10T09:01:29.071Z,19.7
2017-10-10T09:02:37.156Z,19.7
2017-10-10T09:03:45.248Z,19.7
2017-10-10T09:04:53.326Z,19.7
2017-10-10T09:06:01.546Z,19.7
2017-10-10T09:07:09.633Z,19.6
2017-10-10T09:08:17.718Z,19.7
2017-10-10T09:09:25.803Z,19.7
2017-10-10T09:10:33.890Z,19.6
2017-10-10T09:11:41.973Z,19.7
2017-10-10T09:12:50.060Z,19.7
2017-10-10T09:13:58.145Z,19.7
2017-10-10T09:15:06.237Z,19.6
2017-10-10T09:16:14.315Z,19.6
2017-10-10T09:17:22.399Z,19.6
2017-10-10T09:18:30.486Z,19.7
2017-10-10T09:19:38.586Z,19.5
2017-10-10T09:20:46.665Z,19.7
2017-10-10T09:21:54.738Z,19.6
2017-10-10T09:23:02.825Z,19.7
2017-10-10T09:24:10.915Z,19.6
2017-10-10T09:25:18.998Z,19.7
2017-10-10T09:26:27.081Z,19.7
2017-10-10T09:27:35.173Z,19.7
2017-10-10T09:28:43.252Z,19.7
2017-10-10T09:29:51.338Z,19.6
2017-10-10T09:30:59.423Z,19.6
2017-10-10T09:32:07.508Z,19.7
2017-10-10T09:33:15.592Z,19.6
2017-10-10T09:34:23.679Z,19.5
2017-10-10T09:35:31.773Z,19.6
2017-10-10T09:36:39.859Z,19.6
2017-10-10T09:37:47.946Z,19.6
2017-10-10T09:38:56.029Z,19.7
2017-10-10T09:40:04.114Z,19.6
2017-10-10T09:41:12.201Z,19.5
2017-10-10T09:42:20.292Z,19.6
2017-10-10T09:43:28.377Z,19.6
2017-10-10T09:44:36.461Z,19.6
2017-10-10T09:45:44.549Z,19.6
2017-10-10T09:46:52.633Z,19.6
2017-10-10T09:48:00.717Z,19.6
2017-10-10T09:49:08.816Z,19.6
2017-10-10T09:50:16.888Z,19.5
2017-10-10T09:51:24.997Z,19.6
2017-10-10T09:52:33.081Z,19.6
2017-10-10T09:53:41.183Z,19.7
2017-10-10T09:54:49.252Z,19.6
2017-10-10T09:55:57.355Z,19.6
2017-10-10T09:57:05.462Z,19.5
2017-10-10T09:58:13.548Z,19.5
2017-10-10T09:59:21.647Z,19.6
2017-10-10T10:00:29.717Z,19.5
2017-10-10T10:01:37.803Z,19.5
2017-10-10T10:02:45.948Z,19.5
2017-10-10T10:03:53.973Z,19.5
2017-10-10T10:05:02.059Z,19.6
2017-10-10T10:06:10.157Z,19.6
2017-10-10T10:07:18.231Z,19.5
2017-10-10T10:08:26.316Z,19.5
2017-10-10T10:09:34.403Z,19.6
2017-10-10T10:10:42.497Z,19.6
2017-10-10T10:11:50.582Z,19.6
2017-10-10T10:12:58.668Z,19.6
2017-10-10T10:14:06.758Z,19.6
2017-10-10T10:15:14.839Z,19.5
2017-10-10T10:16:22.965Z,19.6
2017-10-10T10:17:31.054Z,19.6
2017-10-10T10:18:39.138Z,19.6
2017-10-10T10:19:47.224Z,19.6
2017-10-10T10:20:55.307Z,19.6
2017-10-10T10:22:03.390Z,19.6
2017-10-10T10:23:11.478Z,19.6
2017-10-10T10:24:19.562Z,19.6
2017-10-10T10:25:27.650Z,19.6
2017-10-10T10:26:35.739Z,19.5
2017-10-10T10:27:43.844Z,19.6
2017-10-10T10:28:51.942Z,19.6
2017-10-10T10:30:00.029Z,19.6
2017-10-10T10:31:08.111Z,19.6
2017-10-10T10:32:16.198Z,19.6
2017-10-10T10:33:24.280Z,19.6
2017-10-10T10:34:32.365Z,19.6
2017-10-10T10:35:40.474Z,19.5
2017-10-10T10:36:48.539Z,19.5
2017-10-10T10:37:56.627Z,19.4
2017-10-10T10:39:04.711Z,19.4
2017-10-10T10:40:12.793Z,19.6
2017-10-10T10:41:20.880Z,19.5
2017-10-10T10:42:28.969Z,19.4
2017-10-10T10:43:37.052Z,19.6
2017-10-10T10:44:45.145Z,19.5
2017-10-10T10:45:53.221Z,19.5
2017-10-10T10:47:01.383Z,19.6
2017-10-10T10:48:09.466Z,19.5
2017-10-10T10:49:17.553Z,19.5
2017-10-10T10:50:25.638Z,19.5
2017-10-10T10:51:33.723Z,19.4
2017-10-10T10:52:41.815Z,19.5
2017-10-10T10:53:49.923Z,19.5
2017-10-10T10:54:57.994Z,19.4
2017-10-10T10:56:06.082Z,19.5
2017-10-10T10:57:14.175Z,19.4
2017-10-10T10:58:22.253Z,19.4
2017-10-10T10:59:30.336Z,19.5
2017-10-10T11:00:38.422Z,19.5
2017-10-10T11:01:46.511Z,19.5
2017-10-10T11:02:54.591Z,19.5
2017-10-10T11:04:02.677Z,19.5
2017-10-10T11:05:10.765Z,19.5
2017-10-10T11:06:18.857Z,19.5
2017-10-10T11:07:26.935Z,19.4
2017-10-10T11:08:35.022Z,19.5
2017-10-10T11:09:43.111Z,19.4
2017-10-10T11:10:51.188Z,19.5
2017-10-10T11:11:59.275Z,19.4
2017-10-10T11:13:07.363Z,19.4
2017-10-10T11:14:15.446Z,19.4
2017-10-10T11:15:23.531Z,19.4
2017-10-10T11:16:31.624Z,19.4
2017-10-10T11:17:39.705Z,19.4
2017-10-10T11:18:47.793Z,19.4
2017-10-10T11:19:55.875Z,19.4
2017-10-10T11:21:03.960Z,19.4
2017-10-10T11:22:12.045Z,19.4
2017-10-10T11:23:20.130Z,19.4
2017-10-10T11:24:28.216Z,19.4
2017-10-10T11:25:36.300Z,19.4
2017-10-10T11:26:44.385Z,19.4
2017-10-10T11:27:52.490Z,19.4
2017-10-10T11:29:00.556Z,19.4
2017-10-10T11:30:08.740Z,19.4
2017-10-10T11:31:16.739Z,19.4
2017-10-10T11:32:24.821Z,19.4
2017-10-10T11:33:32.907Z,19.4
2017-10-10T11:34:40.993Z,19.4
2017-10-10T11:35:49.083Z,19.4
2017-10-10T11:36:57.166Z,19.4
2017-10-10T11:38:05.253Z,19.3
2017-10-10T11:39:13.333Z,19.4
2017-10-10T11:40:21.421Z,19.4
2017-10-10T11:41:29.505Z,19.4
2017-10-10T11:42:37.590Z,19.4
2017-10-10T11:43:45.676Z,19.4
2017-10-10T11:44:53.784Z,19.4
2017-10-10T11:46:01.852Z,19.4
2017-10-10T11:47:09.939Z,19.3
2017-10-10T11:48:18.030Z,19.4
2017-10-10T11:49:26.116Z,19.4
2017-10-10T11:50:34.193Z,19.4
2017-10-10T11:51:42.280Z,19.4
2017-10-10T11:52:50.366Z,19.4
2017-10-10T11:53:58.452Z,19.4
2017-10-10T11:55:06.538Z,19.3
2017-10-10T11:56:14.626Z,19.3
2017-10-10T11:57:22.706Z,19.4
2017-10-10T11:58:30.795Z,19.4
2017-10-10T11:59:38.877Z,19.4
2017-10-10T12:00:46.970Z,19.4
2017-10-10T12:01:55.048Z,19.4
2017-10-10T12:03:03.134Z,19.3
2017-10-10T12:04:11.222Z,19.4
2017-10-10T12:05:19.303Z,19.3
2017-10-10T12:06:27.389Z,19.4
2017-10-10T12:07:35.474Z,19.4
2017-10-10T12:08:43.558Z,19.4
2017-10-10T12:09:51.644Z,19.3
2017-10-10T12:10:59.732Z,19.3
2017-10-10T12:12:07.818Z,19.2
2017-10-10T12:13:15.900Z,19.3
2017-10-10T12:14:23.988Z,19.3
2017-10-10T12:15:32.075Z,19.2
2017-10-10T12:16:40.156Z,19.3
2017-10-10T12:17:48.250Z,19.3
2017-10-10T12:18:56.329Z,19.3
2017-10-10T12:20:04.419Z,19.3
2017-10-10T12:21:12.514Z,19.3
2017-10-10T12:22:20.594Z,19.2
2017-10-10T12:23:28.685Z,19.3
2017-10-10T12:24:36.773Z,19.2
2017-10-10T12:25:44.861Z,19.3
2017-10-10T12:26:52.942Z,19.2
2017-10-10T12:28:01.025Z,19.2
2017-10-10T12:29:09.110Z,19.2
2017-10-10T12:30:17.226Z,19.3
2017-10-10T12:31:25.281Z,19.3
2017-10-10T12:32:33.367Z,19.3
2017-10-10T12:33:41.450Z,19.2
2017-10-10T12:34:49.537Z,19.2
2017-10-10T12:35:57.619Z,19.2
2017-10-10T12:37:05.705Z,19.3
2017-10-10T12:38:13.810Z,19.3
2017-10-10T12:39:21.913Z,19.2
2017-10-10T12:40:29.991Z,19.2
2017-10-10T12:41:38.079Z,19.3
2017-10-10T12:42:46.165Z,19.3
2017-10-10T12:43:54.248Z,19.2
2017-10-10T12:45:02.349Z,19.2
2017-10-10T12:46:10.429Z,19.2
2017-10-10T12:47:18.514Z,19.2
2017-10-10T12:48:26.604Z,19.2
2017-10-10T12:49:34.685Z,19.2
2017-10-10T12:50:42.771Z,19.2
2017-10-10T12:51:50.866Z,19.2
2017-10-10T12:52:58.952Z,19.2
2017-10-10T12:54:07.342Z,19.2
2017-10-10T12:55:15.426Z,19.2
2017-10-10T12:56:23.510Z,19.2
2017-10-10T12:57:31.596Z,19.2
2017-10-10T12:58:39.680Z,19.2
2017-10-10T12:59:47.766Z,19.2
2017-10-10T13:00:55.852Z,19.2
2017-10-10T13:02:03.937Z,19.2
2017-10-10T13:03:12.031Z,19.2
2017-10-10T13:04:20.117Z,19.2
2017-10-10T13:05:28.203Z,19.2
2017-10-10T13:06:36.301Z,19.2
2017-10-10T13:07:44.380Z,19.2
2017-10-10T13:08:52.466Z,19.2
2017-10-10T13:10:00.569Z,19.2
2017-10-10T13:11:08.637Z,19.2
2017-10-10T13:12:16.721Z,19.2
2017-10-10T13:13:24.809Z,19.2
2017-10-10T13:14:32.902Z,19.2
2017-10-10T13:15:41.007Z,19.2
2017-10-10T13:16:49.088Z,19.2
2017-10-10T13:17:57.173Z,19.2
2017-10-10T13:19:05.260Z,19.2
2017-10-10T13:20:13.344Z,19.2
2017-10-10T13:21:21.429Z,19.1
2017-10-10T13:22:29.515Z,19.2
2017-10-10T13:23:37.603Z,19.1
2017-10-10T13:24:45.686Z,19.2
2017-10-10T13:25:53.783Z,19.1
2017-10-10T13:27:01.872Z,19.2
2017-10-10T13:28:09.958Z,19.1
2017-10-10T13:29:18.044Z,19.2
2017-10-10T13:30:26.129Z,19.2
2017-10-10T13:31:34.224Z,19.2
2017-10-10T13:32:42.310Z,19.1
2017-10-10T13:33:50.396Z,19.1
2017-10-10T13:34:58.481Z,19.1
2017-10-10T13:36:06.569Z,19.2
2017-10-10T13:37:14.659Z,19.1
2017-10-10T13:38:22.741Z,19.1
2017-10-10T13:39:30.827Z,19.1
2017-10-10T13:40:38.914Z,19.1
2017-10-10T13:41:46.995Z,19.1
2017-10-10T13:42:55.081Z,19.1
2017-10-10T13:44:03.170Z,19.2
2017-10-10T13:45:11.256Z,19.1
2017-10-10T13:46:19.336Z,19.1
2017-10-10T13:47:27.423Z,19.1
2017-10-10T13:48:35.511Z,19.1
2017-10-10T13:49:43.595Z,19.1
2017-10-10T13:50:51.678Z,19.1
2017-10-10T13:51:59.764Z,19.1
2017-10-10T13:53:07.852Z,19.1
2017-10-10T13:54:15.936Z,19.1
2017-10-10T13:55:24.022Z,19.2
2017-10-10T13:56:32.147Z,19.1
2017-10-10T13:57:40.233Z,19.1
2017-10-10T13:58:48.318Z,19.2
2017-10-10T13:59:56.403Z,19.1
2017-10-10T14:01:04.488Z,19.1
2017-10-10T14:02:12.596Z,19.1
2017-10-10T14:03:20.665Z,19.1
2017-10-10T14:04:28.751Z,19.1
2017-10-10T14:05:36.836Z,19.2
2017-10-10T14:06:44.920Z,19.2
2017-10-10T14:07:53.007Z,19.1
2017-10-10T14:09:01.092Z,19.1
2017-10-10T14:10:09.174Z,19.2
2017-10-10T14:11:17.271Z,19.1
2017-10-10T14:12:25.353Z,19.2
2017-10-10T14:13:33.455Z,19.1
2017-10-10T14:14:41.532Z,19.1
2017-10-10T14:15:49.627Z,19.1
2017-10-10T14:16:57.712Z,19.1
2017-10-10T14:18:05.797Z,19.1
2017-10-10T14:19:13.884Z,19.1
2017-10-10T14:20:21.969Z,19.1
2017-10-10T14:21:30.053Z,19.1
2017-10-10T14:22:38.144Z,19.1
2017-10-10T14:23:46.222Z,19.1
2017-10-10T14:24:54.314Z,19.1
2017-10-10T14:26:02.393Z,19.1
2017-10-10T14:27:10.483Z,19.1
2017-10-10T14:28:18.563Z,19.1
2017-10-10T14:29:26.648Z,19.0
2017-10-10T14:30:34.735Z,19.1
2017-10-10T14:31:42.817Z,19.1
2017-10-10T14:32:50.902Z,19.0
2017-10-10T14:33:59.006Z,19.0
2017-10-10T14:35:07.078Z,18.9
2017-10-10T14:36:15.160Z,19.1
2017-10-10T14:37:23.252Z,19.1
2017-10-10T14:38:31.334Z,19.0
2017-10-10T14:39:39.413Z,19.1
2017-10-10T14:40:47.500Z,19.1
2017-10-10T14:41:55.584Z,19.0
2017-10-10T14:43:03.671Z,19.1
2017-10-10T14:44:11.751Z,19.0
2017-10-10T14:45:19.849Z,19.0
2017-10-10T14:46:27.929Z,19.1
2017-10-10T14:47:36.018Z,19.0
2017-10-10T14:48:44.105Z,19.0
2017-10-10T14:49:52.188Z,19.0
2017-10-10T14:51:00.269Z,19.1
2017-10-10T14:52:08.353Z,19.1
2017-10-10T14:53:16.439Z,19.1
2017-10-10T14:54:24.522Z,18.9
2017-10-10T14:55:32.609Z,19.0
2017-10-10T14:56:40.695Z,19.1
2017-10-10T14:57:48.790Z,19.1
2017-10-10T14:58:56.878Z,19.1
2017-10-10T15:00:04.958Z,18.9
2017-10-10T15:01:13.045Z,19.0
2017-10-10T15:02:21.128Z,19.0
2017-10-10T15:03:29.214Z,19.0
2017-10-10T15:04:37.302Z,19.0
2017-10-10T15:05:45.382Z,19.1